createdAt,value
2023-03-22T00:02:53.152Z,94926.00
2023-03-22T00:06:53.192Z,94928.00
2023-03-22T00:10:53.355Z,94922.00
2023-03-22T00:14:53.585Z,94922.00
2023-03-22T00:18:53.688Z,94924.00
2023-03-22T00:22:53.925Z,94930.00
2023-03-22T00:26:54.106Z,94932.00
2023-03-22T00:30:54.246Z,94924.00
2023-03-22T00:34:54.463Z,94920.00
2023-03-22T00:38:54.453Z,94918.00
2023-03-22T00:42:54.518Z,94916.00
2023-03-22T00:46:54.362Z,94914.00
2023-03-22T00:50:54.326Z,94914.00
2023-03-22T00:54:54.311Z,94910.00
2023-03-22T00:58:54.289Z,94905.00
2023-03-22T01:02:54.202Z,94908.00
2023-03-22T01:06:54.169Z,94908.00
2023-03-22T01:10:54.160Z,94910.00
2023-03-22T01:14:54.129Z,94908.00
2023-03-22T01:18:54.042Z,94910.00
2023-03-22T01:22:54.030Z,94908.00
2023-03-22T01:26:54.009Z,94907.00
2023-03-22T01:30:54.026Z,94910.00
2023-03-22T01:34:53.912Z,94907.00
2023-03-22T01:38:53.888Z,94907.00
2023-03-22T01:42:53.840Z,94905.00
2023-03-22T01:46:53.904Z,94905.00
2023-03-22T01:50:54.005Z,94903.00
2023-03-22T01:54:54.062Z,94903.00
2023-03-22T01:58:54.071Z,94901.00
2023-03-22T02:02:54.148Z,94897.00
2023-03-22T02:06:54.198Z,94897.00
2023-03-22T02:10:54.309Z,94885.00
2023-03-22T02:14:54.491Z,94893.00
2023-03-22T02:18:54.636Z,94893.00
2023-03-22T02:22:54.712Z,94881.00
2023-03-22T02:26:54.845Z,94885.00
2023-03-22T02:30:54.958Z,94883.00
2023-03-22T02:34:55.022Z,94883.00
2023-03-22T02:38:55.122Z,94881.00
2023-03-22T02:42:55.134Z,94885.00
2023-03-22T02:46:55.191Z,94897.00
2023-03-22T02:50:55.099Z,94897.00
2023-03-22T02:54:55.091Z,94899.00
2023-03-22T02:58:55.145Z,94895.00
2023-03-22T03:02:55.116Z,94897.00
2023-03-22T03:06:55.142Z,94895.00
2023-03-22T03:10:55.162Z,94895.00
2023-03-22T03:14:55.193Z,94883.00
2023-03-22T03:18:55.225Z,94879.00
2023-03-22T03:22:55.320Z,94877.00
2023-03-22T03:26:55.339Z,94875.00
2023-03-22T03:30:55.418Z,94873.00
2023-03-22T03:34:55.439Z,94875.00
2023-03-22T03:38:55.457Z,94879.00
2023-03-22T03:42:55.559Z,94883.00
2023-03-22T03:46:55.543Z,94881.00
2023-03-22T03:50:55.604Z,94883.00
2023-03-22T03:54:55.570Z,94881.00
2023-03-22T03:58:55.631Z,94877.00
2023-03-22T04:02:55.631Z,94875.00
2023-03-22T04:06:55.662Z,94877.00
2023-03-22T04:10:55.691Z,94879.00
2023-03-22T04:14:55.677Z,94879.00
2023-03-22T04:18:55.613Z,94877.00
2023-03-22T04:22:55.630Z,94879.00
2023-03-22T04:26:55.671Z,94871.00
2023-03-22T04:30:55.768Z,94869.00
2023-03-22T04:34:55.812Z,94869.00
2023-03-22T04:38:55.835Z,94873.00
2023-03-22T04:42:55.814Z,94873.00
2023-03-22T04:46:55.787Z,94873.00
2023-03-22T04:50:55.752Z,94875.00
2023-03-22T04:54:55.751Z,94875.00
2023-03-22T04:58:55.779Z,94875.00
2023-03-22T05:02:55.826Z,94883.00
2023-03-22T05:06:55.762Z,94893.00
2023-03-22T05:10:55.708Z,94897.00
2023-03-22T05:14:55.692Z,94897.00
2023-03-22T05:18:55.697Z,94901.00
2023-03-22T05:22:55.668Z,94901.00
2023-03-22T05:26:55.749Z,94901.00
2023-03-22T05:30:57.212Z,94907.00
2023-03-22T05:34:55.823Z,94908.00
2023-03-22T05:38:55.845Z,94914.00
2023-03-22T05:42:55.865Z,94912.00
2023-03-22T05:46:55.823Z,94916.00
2023-03-22T05:50:55.812Z,94914.00
2023-03-22T05:54:55.818Z,94908.00
2023-03-22T05:58:55.834Z,94914.00
2023-03-22T06:02:55.896Z,94910.00
2023-03-22T06:06:55.897Z,94912.00
2023-03-22T06:10:55.915Z,94912.00
2023-03-22T06:14:56.033Z,94914.00
2023-03-22T06:18:56.172Z,94914.00
2023-03-22T06:22:56.128Z,94914.00
2023-03-22T06:26:56.128Z,94910.00
2023-03-22T06:30:56.320Z,94914.00
2023-03-22T06:34:56.088Z,94918.00
2023-03-22T06:38:55.991Z,94910.00
2023-03-22T06:42:55.966Z,94910.00
2023-03-22T06:46:55.933Z,94912.00
2023-03-22T06:50:55.859Z,94910.00
2023-03-22T06:54:55.857Z,94907.00
2023-03-22T06:58:55.921Z,94910.00
2023-03-22T07:02:55.994Z,94918.00
2023-03-22T07:06:56.048Z,94916.00
2023-03-22T07:10:56.184Z,94920.00
2023-03-22T07:14:56.105Z,94914.00
2023-03-22T07:18:56.062Z,94916.00
2023-03-22T07:22:56.000Z,94914.00
2023-03-22T07:26:56.036Z,94914.00
2023-03-22T07:30:55.970Z,94916.00
2023-03-22T07:34:55.930Z,94914.00
2023-03-22T07:38:55.863Z,94912.00
2023-03-22T07:42:56.084Z,94905.00
2023-03-22T07:46:55.816Z,94903.00
2023-03-22T07:50:55.790Z,94905.00
2023-03-22T07:54:55.735Z,94907.00
2023-03-22T07:58:55.853Z,94899.00
2023-03-22T08:02:56.052Z,94897.00
2023-03-22T08:06:56.133Z,94893.00
2023-03-22T08:10:56.245Z,94883.00
2023-03-22T08:14:56.306Z,94885.00
2023-03-22T08:18:56.459Z,94881.00
2023-03-22T08:22:56.639Z,94883.00
2023-03-22T08:26:56.806Z,94875.00
2023-03-22T08:30:56.957Z,94873.00
2023-03-22T08:34:56.962Z,94873.00
2023-03-22T08:38:56.993Z,94869.00
2023-03-22T08:42:57.012Z,94869.00
2023-03-22T08:46:57.036Z,94863.00
2023-03-22T08:50:57.045Z,94858.00
2023-03-22T08:54:57.053Z,94856.00
2023-03-22T08:58:57.234Z,94848.00
2023-03-22T09:02:57.318Z,94842.00
2023-03-22T09:06:57.324Z,94832.00
2023-03-22T09:10:57.451Z,94826.00
2023-03-22T09:14:57.467Z,94826.00
2023-03-22T09:18:57.541Z,94814.00
2023-03-22T09:22:57.735Z,94807.00
2023-03-22T09:26:57.663Z,94801.00
2023-03-22T09:30:57.726Z,94799.00
2023-03-22T09:34:57.609Z,94785.00
2023-03-22T09:38:57.682Z,94785.00
2023-03-22T09:42:57.536Z,94781.00
2023-03-22T09:46:57.494Z,94773.00
2023-03-22T09:50:57.499Z,94769.00
2023-03-22T09:54:57.414Z,94763.00
2023-03-22T09:58:57.487Z,94754.00
2023-03-22T10:02:57.353Z,94752.00
2023-03-22T10:06:57.352Z,94740.00
2023-03-22T10:10:57.312Z,94734.00
2023-03-22T10:14:57.236Z,94726.00
2023-03-22T10:18:57.202Z,94718.00
2023-03-22T10:22:57.186Z,94713.00
2023-03-22T10:26:57.151Z,94703.00
2023-03-22T10:30:57.110Z,94697.00
2023-03-22T10:34:57.041Z,94695.00
2023-03-22T10:38:57.106Z,94693.00
2023-03-22T10:42:57.193Z,94683.00
2023-03-22T10:46:57.294Z,94681.00
2023-03-22T10:50:57.402Z,94677.00
2023-03-22T10:55:01.289Z,94669.00
2023-03-22T10:58:58.482Z,94665.00
2023-03-22T11:02:57.550Z,94661.00
2023-03-22T11:06:57.403Z,94654.00
2023-03-22T11:10:57.460Z,94648.00
2023-03-22T11:14:57.527Z,94646.00
2023-03-22T11:18:57.656Z,94636.00
2023-03-22T11:22:57.770Z,94628.00
2023-03-22T11:26:57.899Z,94622.00
2023-03-22T11:30:58.068Z,94614.00
2023-03-22T11:34:58.199Z,94605.00
2023-03-22T11:38:58.458Z,94601.00
2023-03-22T11:42:58.578Z,94595.00
2023-03-22T11:46:58.771Z,94585.00
2023-03-22T11:50:58.934Z,94579.00
2023-03-22T11:54:59.076Z,94569.00
2023-03-22T11:58:59.233Z,94562.00
2023-03-22T12:02:59.497Z,94560.00
2023-03-22T12:06:59.575Z,94552.00
2023-03-22T12:10:59.748Z,94546.00
2023-03-22T12:14:59.963Z,94536.00
2023-03-22T12:19:00.138Z,94528.00
2023-03-22T12:23:00.304Z,94524.00
2023-03-22T12:27:00.473Z,94511.00
2023-03-22T12:31:00.709Z,94509.00
2023-03-22T12:35:18.431Z,94505.00
2023-03-22T12:39:01.834Z,94491.00
2023-03-22T12:43:00.803Z,94479.00
2023-03-22T12:47:00.973Z,94473.00
2023-03-22T12:51:01.152Z,94467.00
2023-03-22T12:55:01.411Z,94462.00
2023-03-22T12:59:01.847Z,94460.00
2023-03-22T13:03:01.628Z,94446.00
2023-03-22T13:07:01.877Z,94442.00
2023-03-22T13:11:01.869Z,94440.00
2023-03-22T13:15:02.386Z,94438.00
2023-03-22T13:19:01.406Z,94432.00
2023-03-22T13:23:01.369Z,94424.00
2023-03-22T13:27:01.401Z,94420.00
2023-03-22T13:31:01.374Z,94417.00
2023-03-22T13:35:01.258Z,94413.00
2023-03-22T13:39:01.217Z,94403.00
2023-03-22T13:43:01.222Z,94403.00
2023-03-22T13:47:01.430Z,94401.00
2023-03-22T13:51:01.409Z,94393.00
2023-03-22T13:55:01.396Z,94385.00
2023-03-22T13:59:01.051Z,94370.00
2023-03-22T14:03:08.265Z,94364.00
2023-03-22T14:07:01.422Z,94364.00
2023-03-22T14:11:01.024Z,94362.00
2023-03-22T14:15:01.466Z,94358.00
2023-03-22T14:19:00.914Z,94356.00
2023-03-22T14:48:03.262Z,94328.00
2023-03-22T14:52:04.382Z,94328.00
2023-03-22T14:56:03.271Z,94328.00
2023-03-22T15:00:02.988Z,94323.00
2023-03-22T15:04:04.222Z,94319.00
2023-03-22T15:08:03.248Z,94319.00
2023-03-22T15:12:03.281Z,94313.00
2023-03-22T15:16:02.817Z,94303.00
2023-03-22T15:20:02.760Z,94299.00
2023-03-22T15:24:02.780Z,94301.00
2023-03-22T15:28:03.286Z,94301.00
2023-03-22T15:32:03.254Z,94305.00
2023-03-22T15:36:03.183Z,94303.00
2023-03-22T15:40:03.318Z,94303.00
2023-03-22T15:44:03.811Z,94301.00
2023-03-22T15:48:03.769Z,94303.00
2023-03-22T15:52:03.682Z,94303.00
2023-03-22T15:56:03.831Z,94305.00
2023-03-22T16:00:04.025Z,94311.00
2023-03-22T16:04:04.291Z,94315.00
2023-03-22T16:08:04.795Z,94319.00
2023-03-22T16:12:04.816Z,94323.00
2023-03-22T16:16:04.580Z,94323.00
2023-03-22T16:20:04.851Z,94321.00
2023-03-22T16:24:05.010Z,94328.00
2023-03-22T16:28:05.166Z,94330.00
2023-03-22T16:32:05.383Z,94334.00
2023-03-22T16:36:05.571Z,94338.00
2023-03-22T16:40:05.906Z,94348.00
2023-03-22T16:44:06.327Z,94350.00
2023-03-22T16:48:06.170Z,94354.00
2023-03-22T16:52:06.766Z,94358.00
2023-03-22T16:56:06.539Z,94358.00
2023-03-22T17:00:07.267Z,94364.00
2023-03-22T17:04:06.943Z,94370.00
2023-03-22T17:08:07.283Z,94381.00
2023-03-22T17:12:07.394Z,94385.00
2023-03-22T17:16:07.531Z,94387.00
2023-03-22T17:20:07.799Z,94391.00
2023-03-22T17:24:07.963Z,94393.00
2023-03-22T17:28:08.330Z,94395.00
2023-03-22T17:32:12.970Z,94403.00
2023-03-22T17:36:09.317Z,94411.00
2023-03-22T17:44:08.342Z,94415.00
2023-03-22T17:48:08.341Z,94424.00
2023-03-22T17:52:08.158Z,94430.00
2023-03-22T17:56:42.082Z,94436.00
2023-03-22T18:00:09.338Z,94450.00
2023-03-22T18:04:08.337Z,94458.00
2023-03-22T18:08:26.245Z,94467.00
2023-03-22T18:12:08.944Z,94477.00
2023-03-22T18:16:08.395Z,94483.00
2023-03-22T18:20:19.528Z,94489.00
2023-03-22T18:24:09.122Z,94495.00
2023-03-22T18:28:08.137Z,94511.00
2023-03-22T18:32:17.800Z,94516.00
2023-03-22T18:36:09.240Z,94520.00
2023-03-22T18:40:48.666Z,94530.00
2023-03-22T18:44:09.387Z,94532.00
2023-03-22T18:48:08.073Z,94540.00
2023-03-22T18:56:09.744Z,94554.00
2023-03-22T19:00:08.362Z,94558.00
2023-03-22T19:04:08.334Z,94560.00
2023-03-22T19:12:07.883Z,94564.00
2023-03-22T19:16:07.858Z,94573.00
2023-03-22T19:20:08.280Z,94575.00
2023-03-22T19:24:07.763Z,94575.00
2023-03-22T19:28:07.736Z,94577.00
2023-03-22T19:32:07.665Z,94575.00
2023-03-22T19:36:07.906Z,94577.00
2023-03-22T19:41:03.071Z,94577.00
2023-03-22T19:44:08.878Z,94579.00
2023-03-22T19:48:07.553Z,94583.00
2023-03-22T19:52:07.903Z,94575.00
2023-03-22T19:56:07.893Z,94579.00
2023-03-22T20:00:43.998Z,94579.00
2023-03-22T20:04:08.720Z,94583.00
2023-03-22T20:08:09.765Z,94587.00
2023-03-22T20:12:07.900Z,94587.00
2023-03-22T20:16:07.880Z,94581.00
2023-03-22T20:20:07.601Z,94589.00
2023-03-22T20:24:07.563Z,94589.00
2023-03-22T20:28:07.557Z,94595.00
2023-03-22T20:32:07.889Z,94597.00
2023-03-22T20:36:07.546Z,94599.00
2023-03-22T20:40:07.431Z,94603.00
2023-03-22T20:44:07.361Z,94605.00
2023-03-22T20:48:07.394Z,94605.00
2023-03-22T20:52:07.559Z,94607.00
2023-03-22T20:56:07.938Z,94616.00
2023-03-22T21:00:07.464Z,94620.00
2023-03-22T21:04:07.420Z,94622.00
2023-03-22T21:08:07.419Z,94622.00
2023-03-22T21:12:07.388Z,94624.00
2023-03-22T21:16:07.417Z,94626.00
2023-03-22T21:20:07.299Z,94638.00
2023-03-22T21:24:07.280Z,94642.00
2023-03-22T21:28:07.428Z,94646.00
2023-03-22T21:32:07.465Z,94650.00
2023-03-22T21:36:07.475Z,94659.00
2023-03-22T21:40:07.318Z,94659.00
2023-03-22T21:44:07.423Z,94659.00
2023-03-22T21:48:07.930Z,94661.00
2023-03-22T21:52:07.691Z,94667.00
2023-03-22T21:56:07.810Z,94665.00
2023-03-22T22:00:07.960Z,94671.00
2023-03-22T22:04:08.441Z,94671.00
2023-03-22T22:08:08.439Z,94675.00
2023-03-22T22:12:08.445Z,94677.00
2023-03-22T22:16:08.452Z,94675.00
2023-03-22T22:20:08.972Z,94677.00
2023-03-22T22:24:08.719Z,94673.00
2023-03-22T22:28:08.968Z,94677.00
2023-03-22T22:32:09.454Z,94677.00
2023-03-22T22:36:09.202Z,94681.00
2023-03-22T22:40:09.329Z,94679.00
2023-03-22T22:44:09.496Z,94679.00
2023-03-22T22:48:09.985Z,94681.00
2023-03-22T22:52:09.815Z,94677.00
2023-03-22T22:56:09.994Z,94681.00
2023-03-22T23:00:10.468Z,94679.00
2023-03-22T23:04:10.512Z,94677.00
2023-03-22T23:08:10.476Z,94673.00
2023-03-22T23:12:10.654Z,94667.00
2023-03-22T23:16:10.828Z,94667.00
2023-03-22T23:20:11.480Z,94669.00
2023-03-22T23:24:11.185Z,94665.00
2023-03-22T23:28:11.491Z,94665.00
2023-03-22T23:32:11.470Z,94663.00
2023-03-22T23:36:11.985Z,94665.00
2023-03-22T23:40:11.874Z,94665.00
2023-03-22T23:44:12.529Z,94665.00
2023-03-22T23:48:12.242Z,94667.00
2023-03-22T23:52:12.526Z,94673.00
2023-03-22T23:56:13.022Z,94671.00
